createdAt,value
2022-12-15T00:00:23.788Z,36.08
2022-12-15T00:03:10.322Z,29.80
2022-12-15T00:05:56.642Z,29.00
2022-12-15T00:08:42.516Z,24.58
2022-12-15T00:11:28.445Z,36.65
2022-12-15T00:14:14.337Z,34.63
2022-12-15T00:17:00.285Z,35.75
2022-12-15T00:19:46.246Z,27.83
2022-12-15T00:22:32.192Z,28.52
2022-12-15T00:25:18.184Z,26.52
2022-12-15T00:28:04.185Z,33.13
2022-12-15T00:30:50.453Z,29.17
2022-12-15T00:33:36.682Z,33.70
2022-12-15T00:36:22.624Z,29.30
2022-12-15T00:38:50.131Z,32.28
2022-12-15T00:41:18.817Z,30.65
2022-12-15T00:43:46.850Z,25.63
2022-12-15T00:46:33.417Z,37.78
2022-12-15T00:49:01.724Z,26.38
2022-12-15T00:51:47.893Z,31.20
2022-12-15T00:54:33.837Z,28.30
2022-12-15T00:57:19.877Z,23.45
2022-12-15T01:00:05.761Z,19.55
2022-12-15T01:02:52.137Z,24.52
2022-12-15T01:05:38.444Z,22.75
2022-12-15T01:08:24.752Z,34.03
2022-12-15T01:11:10.679Z,30.92
2022-12-15T01:13:56.656Z,28.67
2022-12-15T01:16:42.669Z,28.60
2022-12-15T01:19:30.353Z,32.17
2022-12-15T01:24:25.201Z,35.08
2022-12-15T01:26:52.689Z,30.50
2022-12-15T01:29:20.191Z,29.33
2022-12-15T01:31:50.122Z,37.70
2022-12-15T01:34:20.216Z,31.55
2022-12-15T01:36:48.289Z,32.65
2022-12-15T01:39:16.153Z,32.65
2022-12-15T01:41:43.740Z,33.63
2022-12-15T01:44:18.667Z,33.83
2022-12-15T01:46:49.214Z,26.38
2022-12-15T01:49:21.900Z,35.03
2022-12-15T01:51:55.319Z,32.38
2022-12-15T01:54:41.868Z,29.88
2022-12-15T01:57:14.396Z,31.65
2022-12-15T01:59:50.781Z,28.98
2022-12-15T02:02:21.440Z,33.42
2022-12-15T02:04:51.820Z,34.20
2022-12-15T02:07:20.261Z,30.65
2022-12-15T02:09:49.987Z,25.00
2022-12-15T02:12:25.817Z,21.70
2022-12-15T02:15:05.229Z,24.73
2022-12-15T02:17:59.412Z,25.30
2022-12-15T02:21:13.345Z,27.55
2022-12-15T02:24:06.552Z,22.45
2022-12-15T02:26:42.891Z,31.77
2022-12-15T02:29:29.025Z,29.75
2022-12-15T02:32:07.690Z,29.10
2022-12-15T02:34:41.330Z,25.02
2022-12-15T02:37:41.518Z,27.58
2022-12-15T02:40:10.645Z,33.22
2022-12-15T02:42:44.526Z,28.95
2022-12-15T02:45:15.378Z,29.42
2022-12-15T02:48:11.877Z,28.23
2022-12-15T02:51:24.215Z,29.67
2022-12-15T02:53:51.734Z,23.05
2022-12-15T02:56:38.084Z,28.52
2022-12-15T02:59:11.277Z,26.67
2022-12-15T03:02:03.604Z,25.15
2022-12-15T03:04:33.877Z,25.10
2022-12-15T03:07:04.924Z,29.75
2022-12-15T03:09:33.198Z,23.52
2022-12-15T03:12:00.913Z,28.55
2022-12-15T03:14:31.441Z,22.60
2022-12-15T03:16:59.047Z,25.17
2022-12-15T03:19:26.705Z,25.48
2022-12-15T03:21:54.290Z,25.05
2022-12-15T03:24:21.783Z,31.05
2022-12-15T03:26:50.231Z,27.25
2022-12-15T03:29:18.406Z,22.95
2022-12-15T03:31:46.336Z,26.80
2022-12-15T03:34:17.491Z,26.90
2022-12-15T03:36:45.000Z,26.17
2022-12-15T03:39:12.620Z,22.80
2022-12-15T03:41:41.671Z,23.42
2022-12-15T03:44:09.397Z,25.92
2022-12-15T03:46:36.862Z,24.60
2022-12-15T03:49:04.544Z,27.13
2022-12-15T03:51:32.083Z,30.58
2022-12-15T03:53:59.655Z,28.55
2022-12-15T03:56:27.214Z,25.10
2022-12-15T03:58:54.758Z,29.13
2022-12-15T04:01:31.370Z,19.33
2022-12-15T04:04:01.260Z,26.10
2022-12-15T04:06:30.398Z,23.73
2022-12-15T04:08:58.633Z,23.65
2022-12-15T04:11:26.124Z,29.98
2022-12-15T04:13:53.625Z,25.15
2022-12-15T04:16:21.370Z,25.98
2022-12-15T04:19:11.698Z,24.10
2022-12-15T04:21:39.354Z,25.55
2022-12-15T04:24:25.396Z,22.50
2022-12-15T04:27:11.561Z,24.08
2022-12-15T04:29:59.993Z,29.20
2022-12-15T04:32:50.098Z,22.30
2022-12-15T04:35:36.921Z,24.42
2022-12-15T04:38:22.972Z,25.88
2022-12-15T04:41:08.856Z,20.30
2022-12-15T04:43:54.847Z,24.80
2022-12-15T04:46:40.882Z,26.88
2022-12-15T04:49:27.356Z,28.67
2022-12-15T04:52:13.316Z,26.00
2022-12-15T04:54:59.222Z,24.58
2022-12-15T04:57:45.096Z,27.30
2022-12-15T05:00:31.717Z,23.35
2022-12-15T05:03:23.820Z,24.97
2022-12-15T05:06:09.675Z,24.60
2022-12-15T05:08:55.611Z,24.65
2022-12-15T05:11:41.565Z,24.98
2022-12-15T05:14:27.628Z,25.25
2022-12-15T05:17:13.702Z,27.73
2022-12-15T05:20:00.167Z,20.45
2022-12-15T05:22:46.090Z,36.08
2022-12-15T05:25:32.242Z,24.85
2022-12-15T05:28:18.210Z,19.42
2022-12-15T05:31:04.232Z,22.40
2022-12-15T05:33:32.070Z,25.48
2022-12-15T05:35:59.893Z,24.83
2022-12-15T05:38:27.370Z,24.40
2022-12-15T05:40:58.489Z,26.73
2022-12-15T05:43:26.902Z,26.95
2022-12-15T05:45:54.524Z,27.17
2022-12-15T05:48:22.297Z,25.90
2022-12-15T05:53:18.106Z,28.88
2022-12-15T05:55:45.578Z,21.25
2022-12-15T05:58:13.271Z,21.15
2022-12-15T06:00:41.077Z,29.27
2022-12-15T06:03:08.842Z,22.10
2022-12-15T06:05:37.054Z,26.95
2022-12-15T06:08:04.723Z,22.73
2022-12-15T06:10:32.233Z,25.95
2022-12-15T06:12:59.812Z,26.67
2022-12-15T06:15:28.506Z,23.42
2022-12-15T06:17:58.470Z,19.10
2022-12-15T06:20:26.296Z,28.27
2022-12-15T06:22:54.020Z,24.17
2022-12-15T06:25:21.730Z,22.15
2022-12-15T06:27:49.430Z,20.90
2022-12-15T06:30:17.081Z,17.83
2022-12-15T06:32:44.741Z,25.48
2022-12-15T06:35:12.829Z,27.63
2022-12-15T06:42:18.016Z,30.17
2022-12-15T06:45:59.606Z,21.77
2022-12-15T06:48:47.938Z,30.15
2022-12-15T06:51:46.378Z,29.67
2022-12-15T06:54:35.787Z,24.42
2022-12-15T06:57:38.628Z,32.38
2022-12-15T07:00:48.641Z,23.98
2022-12-15T07:03:30.853Z,27.02
2022-12-15T07:06:22.377Z,23.20
2022-12-15T07:09:16.664Z,22.75
2022-12-15T07:11:53.651Z,26.00
2022-12-15T07:14:28.315Z,26.73
2022-12-15T07:17:16.406Z,21.30
2022-12-15T07:20:53.197Z,29.15
2022-12-15T07:23:52.675Z,28.67
2022-12-15T07:27:00.374Z,24.13
2022-12-15T07:30:24.786Z,32.08
2022-12-15T07:33:04.836Z,25.65
2022-12-15T07:37:06.364Z,27.30
2022-12-15T07:39:11.719Z,28.55
2022-12-15T07:57:47.035Z,23.73
2022-12-15T08:02:31.169Z,20.85
2022-12-15T08:29:54.314Z,36.25
2022-12-15T08:32:25.399Z,29.23
2022-12-15T08:34:55.933Z,32.90
2022-12-15T08:44:23.493Z,35.40
2022-12-15T08:46:51.890Z,32.92
2022-12-15T08:49:22.411Z,32.50
2022-12-15T08:51:54.914Z,35.40
2022-12-15T08:54:22.605Z,46.47
2022-12-15T08:56:56.392Z,30.60
2022-12-15T08:59:24.062Z,31.83
2022-12-15T09:01:52.011Z,34.17
2022-12-15T09:04:26.105Z,45.10
2022-12-15T09:07:13.959Z,37.50
2022-12-15T09:10:17.540Z,38.30
2022-12-15T09:12:45.298Z,45.75
2022-12-15T09:15:13.471Z,37.30
2022-12-15T09:17:41.968Z,42.75
2022-12-15T09:20:10.001Z,35.08
2022-12-15T09:22:50.395Z,40.22
2022-12-15T09:25:21.458Z,39.58
2022-12-15T09:27:51.399Z,36.33
2022-12-15T09:30:22.558Z,39.03
2022-12-15T09:32:53.151Z,34.67
2022-12-15T09:35:33.677Z,36.65
2022-12-15T09:38:09.288Z,35.80
2022-12-15T09:40:43.218Z,34.55
2022-12-15T09:43:34.047Z,40.20
2022-12-15T09:46:21.773Z,38.45
2022-12-15T09:48:51.277Z,38.47
2022-12-15T09:51:19.592Z,41.45
2022-12-15T09:53:56.194Z,41.78
2022-12-15T09:56:41.679Z,37.65
2022-12-15T09:59:32.870Z,34.38
2022-12-15T10:02:49.836Z,36.85
2022-12-15T10:05:57.748Z,33.35
2022-12-15T10:08:20.723Z,35.30
2022-12-15T10:10:58.717Z,32.25
2022-12-15T10:13:50.288Z,39.22
2022-12-15T10:16:36.872Z,47.50
2022-12-15T10:19:11.780Z,143.50
2022-12-15T10:21:39.721Z,114.03
2022-12-15T10:24:44.508Z,68.85
2022-12-15T10:27:31.451Z,40.38
2022-12-15T10:30:11.339Z,38.25
2022-12-15T10:32:57.755Z,35.22
2022-12-15T10:35:30.252Z,43.85
2022-12-15T10:38:33.270Z,40.95
2022-12-15T10:41:08.557Z,51.40
2022-12-15T10:43:50.358Z,43.85
2022-12-15T10:46:26.491Z,43.38
2022-12-15T10:49:21.354Z,44.35
2022-12-15T10:52:01.911Z,41.85
2022-12-15T10:54:44.895Z,42.78
2022-12-15T10:57:32.833Z,39.92
2022-12-15T11:00:14.027Z,37.15
2022-12-15T11:02:44.752Z,37.35
2022-12-15T11:05:44.938Z,37.13
2022-12-15T11:09:47.361Z,36.70
2022-12-15T11:17:39.734Z,30.77
2022-12-15T11:22:02.996Z,38.30
2022-12-15T11:26:07.172Z,36.70
2022-12-15T11:30:04.615Z,40.15
2022-12-15T11:35:42.969Z,47.50
2022-12-15T11:46:05.111Z,37.92
2022-12-15T11:49:12.099Z,39.65
2022-12-15T11:52:05.213Z,44.40
2022-12-15T11:55:23.089Z,51.88
2022-12-15T12:02:14.067Z,40.92
2022-12-15T12:05:22.442Z,41.80
2022-12-15T12:08:04.191Z,40.78
2022-12-15T12:10:31.676Z,38.45
2022-12-15T12:13:14.666Z,39.95
2022-12-15T12:16:19.041Z,35.17
2022-12-15T12:18:54.718Z,29.55
2022-12-15T12:21:29.987Z,37.35
2022-12-15T12:24:26.448Z,30.33
2022-12-15T12:27:01.990Z,32.83
2022-12-15T12:29:41.900Z,28.20
2022-12-15T12:32:40.103Z,31.30
2022-12-15T12:35:31.178Z,36.85
2022-12-15T12:38:10.682Z,38.08
2022-12-15T12:40:46.649Z,36.17
2022-12-15T12:43:32.133Z,36.70
2022-12-15T12:46:28.156Z,38.65
2022-12-15T12:49:18.713Z,39.92
2022-12-15T12:51:54.955Z,32.42
2022-12-15T12:54:41.217Z,33.17
2022-12-15T12:57:11.775Z,32.92
2022-12-15T12:59:44.587Z,26.48
2022-12-15T13:02:25.890Z,41.28
2022-12-15T13:05:05.157Z,26.98
2022-12-15T13:07:41.086Z,29.50
2022-12-15T13:10:26.005Z,28.60
2022-12-15T13:12:59.301Z,26.15
2022-12-15T13:15:43.106Z,29.58
2022-12-15T13:18:22.761Z,24.27
2022-12-15T13:20:55.307Z,31.13
2022-12-15T13:23:25.727Z,26.33
2022-12-15T13:25:55.890Z,25.30
2022-12-15T13:28:29.668Z,26.75
2022-12-15T13:31:16.541Z,26.25
2022-12-15T13:33:55.661Z,25.52
2022-12-15T13:36:39.405Z,26.95
2022-12-15T13:39:16.334Z,29.60
2022-12-15T13:44:51.515Z,22.90
2022-12-15T13:47:19.087Z,23.25
2022-12-15T13:50:01.887Z,19.83
2022-12-15T13:55:39.378Z,19.08
2022-12-15T13:58:15.925Z,18.13
2022-12-15T14:00:55.865Z,15.90
2022-12-15T14:03:27.439Z,20.92
2022-12-15T14:05:58.819Z,25.17
2022-12-15T14:08:35.349Z,18.23
2022-12-15T14:11:22.355Z,15.65
2022-12-15T14:13:57.615Z,22.90
2022-12-15T14:16:33.233Z,26.93
2022-12-15T14:19:19.783Z,24.25
2022-12-15T14:21:51.576Z,21.13
2022-12-15T14:24:40.701Z,22.20
2022-12-15T14:27:08.857Z,27.65
2022-12-15T14:29:36.537Z,24.45
2022-12-15T14:32:04.691Z,22.58
2022-12-15T14:34:35.830Z,33.45
2022-12-15T14:37:13.401Z,28.83
2022-12-15T14:42:24.977Z,24.17
2022-12-15T14:44:57.719Z,21.33
2022-12-15T14:47:29.286Z,24.02
2022-12-15T14:50:02.546Z,21.95
2022-12-15T14:52:37.078Z,20.33
2022-12-15T14:55:26.461Z,23.35
2022-12-15T14:57:54.081Z,24.05
2022-12-15T15:00:25.398Z,24.50
2022-12-15T15:03:17.784Z,26.00
2022-12-15T15:05:52.041Z,30.95
2022-12-15T15:08:36.099Z,26.60
2022-12-15T15:11:24.713Z,24.20
2022-12-15T15:14:24.931Z,22.23
2022-12-15T15:17:15.072Z,27.13
2022-12-15T15:24:59.921Z,17.70
2022-12-15T15:27:42.087Z,23.33
2022-12-15T15:30:24.454Z,20.40
2022-12-15T15:33:02.215Z,21.33
2022-12-15T15:35:39.928Z,19.65
2022-12-15T15:44:14.722Z,19.30
2022-12-15T15:46:54.418Z,18.77
2022-12-15T15:49:25.671Z,26.70
2022-12-15T15:51:56.131Z,19.08
2022-12-15T15:54:35.910Z,20.45
2022-12-15T15:57:03.710Z,22.35
2022-12-15T15:59:31.426Z,19.88
2022-12-15T16:02:01.891Z,28.27
2022-12-15T16:04:43.501Z,22.73
2022-12-15T16:07:50.863Z,21.38
2022-12-15T16:10:47.745Z,25.77
2022-12-15T16:13:25.555Z,22.27
2022-12-15T16:16:05.375Z,24.20
2022-12-15T16:18:36.051Z,26.85
2022-12-15T16:21:13.947Z,23.63
2022-12-15T16:26:29.787Z,29.50
2022-12-15T16:29:14.370Z,23.57
2022-12-15T16:34:31.822Z,21.10
2022-12-15T16:37:04.790Z,21.58
2022-12-15T16:39:54.679Z,27.63
2022-12-15T16:42:25.389Z,25.33
2022-12-15T16:44:58.516Z,30.05
2022-12-15T16:47:29.688Z,30.55
2022-12-15T16:50:04.877Z,30.35
2022-12-15T16:52:35.148Z,27.60
2022-12-15T16:55:03.005Z,23.20
2022-12-15T16:57:33.010Z,30.65
2022-12-15T17:00:04.698Z,28.73
2022-12-15T17:02:33.514Z,24.15
2022-12-15T17:05:06.546Z,33.05
2022-12-15T17:07:44.687Z,29.92
2022-12-15T17:10:18.152Z,29.73
2022-12-15T17:13:07.369Z,37.08
2022-12-15T17:15:41.184Z,38.22
2022-12-15T17:18:12.869Z,30.38
2022-12-15T17:20:42.352Z,25.90
2022-12-15T17:23:20.292Z,27.92
2022-12-15T17:26:28.740Z,25.88
2022-12-15T17:29:33.396Z,34.45
2022-12-15T17:32:10.329Z,28.65
2022-12-15T17:34:43.478Z,42.08
2022-12-15T17:37:14.943Z,55.65
2022-12-15T17:39:52.900Z,45.53
2022-12-15T17:44:51.757Z,47.75
2022-12-15T17:47:19.654Z,53.08
2022-12-15T17:49:47.484Z,75.00
2022-12-15T17:54:59.995Z,58.25
2022-12-15T17:57:34.411Z,66.40
2022-12-15T18:00:18.149Z,66.63
2022-12-15T18:02:50.225Z,59.60
2022-12-15T18:05:24.111Z,58.15
2022-12-15T18:08:15.137Z,61.80
2022-12-15T18:10:43.750Z,55.33
2022-12-15T18:13:54.612Z,67.05
2022-12-15T18:17:19.193Z,58.70
2022-12-15T18:20:10.779Z,49.03
2022-12-15T18:23:12.995Z,46.15
2022-12-15T18:25:50.057Z,57.78
2022-12-15T18:28:23.729Z,56.20
2022-12-15T18:31:02.629Z,66.03
2022-12-15T18:33:32.259Z,66.30
2022-12-15T18:36:03.427Z,66.07
2022-12-15T18:38:31.136Z,72.22
2022-12-15T18:41:04.620Z,63.38
2022-12-15T18:43:34.690Z,63.08
2022-12-15T18:46:11.550Z,58.42
2022-12-15T18:48:44.279Z,63.45
2022-12-15T18:54:29.640Z,56.30
2022-12-15T18:57:36.383Z,72.18
2022-12-15T19:00:12.900Z,61.17
2022-12-15T19:02:43.579Z,65.40
2022-12-15T19:08:48.952Z,60.05
2022-12-15T19:11:30.125Z,58.95
2022-12-15T19:14:02.709Z,56.53
2022-12-15T19:16:53.358Z,56.38
2022-12-15T19:19:39.562Z,50.17
2022-12-15T19:22:30.486Z,48.72
2022-12-15T19:24:59.047Z,56.13
2022-12-15T19:27:28.891Z,57.40
2022-12-15T19:29:56.448Z,58.25
2022-12-15T19:32:24.392Z,44.05
2022-12-15T19:37:28.197Z,40.35
2022-12-15T19:39:57.885Z,38.72
2022-12-15T19:42:35.419Z,44.00
2022-12-15T19:45:21.348Z,38.97
2022-12-15T19:47:53.260Z,40.70
2022-12-15T19:50:40.721Z,40.17
2022-12-15T19:53:29.325Z,46.67
2022-12-15T19:55:59.401Z,44.25
2022-12-15T19:58:30.135Z,39.03
2022-12-15T20:01:05.213Z,53.75
2022-12-15T20:03:34.464Z,58.85
2022-12-15T20:06:04.082Z,56.30
2022-12-15T20:08:37.070Z,56.35
2022-12-15T20:11:05.170Z,43.15
2022-12-15T20:13:51.300Z,49.45
2022-12-15T20:16:19.500Z,54.30
2022-12-15T20:18:48.494Z,60.10
2022-12-15T20:21:22.549Z,56.72
2022-12-15T20:23:54.595Z,60.03
2022-12-15T20:26:26.269Z,56.60
2022-12-15T20:28:53.892Z,51.60
2022-12-15T20:31:25.356Z,61.03
2022-12-15T20:33:56.384Z,58.95
2022-12-15T20:36:33.023Z,52.38
2022-12-15T20:39:00.806Z,44.83
2022-12-15T20:41:29.559Z,43.45
2022-12-15T20:43:57.986Z,46.58
2022-12-15T20:46:29.150Z,48.45
2022-12-15T20:48:56.855Z,47.38
2022-12-15T20:51:33.032Z,62.47
2022-12-15T20:54:02.164Z,39.78
2022-12-15T20:56:29.801Z,52.83
2022-12-15T20:58:58.715Z,47.17
2022-12-15T21:01:33.018Z,49.20
2022-12-15T21:04:13.231Z,46.20
2022-12-15T21:06:49.938Z,41.10
2022-12-15T21:09:22.508Z,46.83
2022-12-15T21:11:51.823Z,51.28
2022-12-15T21:14:22.795Z,47.70
2022-12-15T21:16:52.776Z,41.90
2022-12-15T21:19:22.350Z,45.20
2022-12-15T21:21:55.511Z,43.72
2022-12-15T21:24:26.002Z,42.78
2022-12-15T21:26:54.000Z,51.00
2022-12-15T21:29:27.920Z,47.55
2022-12-15T21:31:55.508Z,44.90
2022-12-15T21:34:23.176Z,42.70
2022-12-15T21:36:55.276Z,44.78
2022-12-15T21:39:30.096Z,43.75
2022-12-15T21:42:08.469Z,39.13
2022-12-15T21:44:36.135Z,41.42
2022-12-15T21:47:52.051Z,36.92
2022-12-15T21:50:20.159Z,44.78
2022-12-15T21:52:48.234Z,34.80
2022-12-15T21:55:17.893Z,36.45
2022-12-15T21:57:45.716Z,38.97
2022-12-15T22:00:15.926Z,40.78
2022-12-15T22:02:48.190Z,43.30
2022-12-15T22:05:30.112Z,41.92
2022-12-15T22:08:12.842Z,42.53
2022-12-15T22:10:45.227Z,43.55
2022-12-15T22:13:57.039Z,39.05
2022-12-15T22:16:32.271Z,43.35
2022-12-15T22:19:00.700Z,40.97
2022-12-15T22:21:28.545Z,41.72
2022-12-15T22:23:55.950Z,42.58
2022-12-15T22:26:28.470Z,42.33
2022-12-15T22:28:58.816Z,44.75
2022-12-15T22:31:27.274Z,42.38
2022-12-15T22:33:55.216Z,45.47
2022-12-15T22:38:50.199Z,39.80
2022-12-15T22:41:21.242Z,44.80
2022-12-15T22:43:52.094Z,43.95
2022-12-15T22:46:22.308Z,44.33
2022-12-15T22:48:51.630Z,40.10
2022-12-15T22:51:19.828Z,40.55
2022-12-15T22:53:47.502Z,39.17
2022-12-15T22:56:28.696Z,40.35
2022-12-15T22:59:05.605Z,36.33
2022-12-15T23:01:33.303Z,34.03
2022-12-15T23:04:00.814Z,44.88
2022-12-15T23:06:28.452Z,40.88
2022-12-15T23:08:56.463Z,37.80
2022-12-15T23:11:39.846Z,40.38
2022-12-15T23:14:15.865Z,37.33
2022-12-15T23:16:47.210Z,44.03
2022-12-15T23:19:23.893Z,37.72
2022-12-15T23:21:54.470Z,45.55
2022-12-15T23:24:22.115Z,42.13
2022-12-15T23:26:49.577Z,45.55
2022-12-15T23:29:17.557Z,44.83
2022-12-15T23:31:45.244Z,42.00
2022-12-15T23:34:12.828Z,42.08
2022-12-15T23:36:40.302Z,47.45
2022-12-15T23:39:08.045Z,47.67
2022-12-15T23:41:36.474Z,47.85
2022-12-15T23:44:04.026Z,42.67
2022-12-15T23:46:31.647Z,44.05
2022-12-15T23:48:59.926Z,42.85
2022-12-15T23:51:27.410Z,51.70
2022-12-15T23:53:54.954Z,36.58
2022-12-15T23:56:24.329Z,39.33
2022-12-15T23:58:57.261Z,39.72
